createdAt,value
2017-11-19T00:01:48.665Z,9.27
2017-11-19T00:04:16.376Z,10.07
2017-11-19T00:06:44.090Z,9.27
2017-11-19T00:09:11.828Z,9.40
2017-11-19T00:11:39.544Z,10.00
2017-11-19T00:14:08.034Z,9.43
2017-11-19T00:16:35.753Z,9.67
2017-11-19T00:19:03.526Z,8.60
2017-11-19T00:21:31.252Z,10.30
2017-11-19T00:23:58.967Z,9.63
2017-11-19T00:26:27.434Z,10.10
2017-11-19T00:28:55.206Z,10.27
2017-11-19T00:31:23.730Z,10.63
2017-11-19T00:33:51.534Z,10.57
2017-11-19T00:36:19.205Z,11.43
2017-11-19T00:38:47.732Z,11.50
2017-11-19T00:41:15.411Z,10.73
2017-11-19T00:43:43.129Z,11.10
2017-11-19T00:46:15.392Z,11.93
2017-11-19T00:48:43.117Z,12.10
2017-11-19T00:51:10.799Z,10.40
2017-11-19T00:53:39.280Z,9.83
2017-11-19T00:56:07.712Z,10.10
2017-11-19T00:58:35.435Z,10.03
2017-11-19T01:01:03.166Z,9.17
2017-11-19T01:03:31.616Z,10.67
2017-11-19T01:05:59.333Z,10.13
2017-11-19T01:08:27.002Z,9.53
2017-11-19T01:10:54.729Z,10.40
2017-11-19T01:15:57.221Z,10.73
2017-11-19T01:18:25.663Z,9.03
2017-11-19T01:20:53.405Z,10.37
2017-11-19T01:23:21.096Z,9.27
2017-11-19T01:25:48.792Z,9.20
2017-11-19T01:28:16.466Z,9.47
2017-11-19T01:30:44.254Z,10.60
2017-11-19T01:33:11.964Z,9.80
2017-11-19T01:35:40.489Z,10.03
2017-11-19T01:38:08.180Z,9.57
2017-11-19T01:40:35.957Z,11.03
2017-11-19T01:43:04.434Z,10.63
2017-11-19T01:45:32.940Z,10.07
2017-11-19T01:48:00.616Z,12.00
2017-11-19T01:50:28.368Z,11.23
2017-11-19T01:52:56.045Z,11.43
2017-11-19T01:55:25.192Z,9.90
2017-11-19T01:57:53.629Z,10.33
2017-11-19T02:00:21.378Z,11.60
2017-11-19T02:02:49.066Z,11.53
2017-11-19T02:05:16.824Z,12.23
2017-11-19T02:07:44.507Z,11.67
2017-11-19T02:10:12.937Z,11.80
2017-11-19T02:12:40.645Z,11.40
2017-11-19T02:15:09.082Z,11.13
2017-11-19T02:17:36.794Z,11.70
2017-11-19T02:20:05.242Z,12.27
2017-11-19T02:22:32.993Z,11.53
2017-11-19T02:25:00.680Z,11.83
2017-11-19T02:27:29.172Z,11.70
2017-11-19T02:29:57.600Z,11.00
2017-11-19T02:32:25.330Z,12.00
2017-11-19T02:34:52.985Z,11.73
2017-11-19T02:37:20.734Z,12.20
2017-11-19T02:39:48.413Z,12.20
2017-11-19T02:42:16.118Z,12.13
2017-11-19T02:44:43.794Z,12.20
2017-11-19T02:47:12.274Z,12.37
2017-11-19T02:49:40.705Z,11.93
2017-11-19T02:52:08.423Z,11.80
2017-11-19T02:54:36.876Z,11.33
2017-11-19T02:57:04.607Z,12.83
2017-11-19T02:59:32.278Z,11.63
2017-11-19T03:01:59.995Z,11.90
2017-11-19T03:04:27.698Z,11.83
2017-11-19T03:06:55.402Z,12.13
2017-11-19T03:09:23.862Z,11.93
2017-11-19T03:11:52.400Z,12.10
2017-11-19T03:14:20.064Z,12.80
2017-11-19T03:16:47.764Z,12.53
2017-11-19T03:19:16.234Z,11.97
2017-11-19T03:21:43.902Z,13.80
2017-11-19T03:24:12.424Z,11.73
2017-11-19T03:26:40.097Z,12.23
2017-11-19T03:29:07.852Z,12.43
2017-11-19T03:31:35.524Z,12.10
2017-11-19T03:34:03.233Z,12.33
2017-11-19T03:36:31.663Z,11.97
2017-11-19T03:38:59.376Z,13.37
2017-11-19T03:41:27.052Z,12.07
2017-11-19T03:43:54.783Z,12.53
2017-11-19T03:46:23.215Z,11.63
2017-11-19T03:48:50.928Z,12.47
2017-11-19T03:51:19.348Z,12.70
2017-11-19T03:53:47.818Z,14.30
2017-11-19T03:56:15.493Z,13.80
2017-11-19T03:58:43.204Z,13.53
2017-11-19T04:01:11.637Z,13.77
2017-11-19T04:03:39.347Z,13.40
2017-11-19T04:06:07.004Z,13.27
2017-11-19T04:08:34.712Z,13.87
2017-11-19T04:11:02.378Z,13.03
2017-11-19T04:13:30.096Z,12.90
2017-11-19T04:15:57.761Z,12.03
2017-11-19T04:18:25.425Z,10.97
2017-11-19T04:20:53.157Z,11.50
2017-11-19T04:23:21.581Z,11.17
2017-11-19T04:25:49.314Z,11.17
2017-11-19T04:28:17.029Z,10.00
2017-11-19T04:30:44.805Z,10.37
2017-11-19T04:33:13.281Z,11.17
2017-11-19T04:35:41.766Z,10.30
2017-11-19T04:38:10.208Z,9.47
2017-11-19T04:40:38.032Z,7.20
2017-11-19T04:43:05.904Z,4.70
2017-11-19T04:45:33.639Z,3.17
2017-11-19T04:48:02.077Z,3.07
2017-11-19T04:50:29.772Z,2.83
2017-11-19T04:52:58.207Z,3.73
2017-11-19T04:55:25.900Z,2.37
2017-11-19T04:57:54.332Z,2.70
2017-11-19T05:00:22.043Z,2.60
2017-11-19T05:02:50.464Z,2.80
2017-11-19T05:05:18.156Z,2.40
2017-11-19T05:07:45.819Z,1.97
2017-11-19T05:10:13.557Z,2.20
2017-11-19T05:12:41.221Z,1.70
2017-11-19T05:15:08.933Z,1.80
2017-11-19T05:17:36.596Z,1.67
2017-11-19T05:20:04.294Z,1.50
2017-11-19T05:22:31.989Z,1.60
2017-11-19T05:24:59.652Z,2.03
2017-11-19T05:27:28.857Z,2.30
2017-11-19T05:29:57.277Z,1.80
2017-11-19T05:32:24.984Z,2.57
2017-11-19T05:34:53.428Z,2.00
2017-11-19T05:37:21.159Z,1.80
2017-11-19T05:39:48.831Z,2.30
2017-11-19T05:42:16.531Z,2.20
2017-11-19T05:44:44.176Z,1.40
2017-11-19T05:47:11.877Z,1.87
2017-11-19T05:49:40.305Z,1.40
2017-11-19T05:52:08.008Z,1.87
2017-11-19T05:54:36.641Z,1.50
2017-11-19T05:57:04.341Z,1.50
2017-11-19T05:59:32.772Z,2.20
2017-11-19T06:02:00.469Z,2.10
2017-11-19T06:04:28.139Z,2.43
2017-11-19T06:06:56.596Z,1.87
2017-11-19T06:09:24.272Z,1.50
2017-11-19T06:11:52.740Z,1.30
2017-11-19T06:14:20.426Z,1.93
2017-11-19T06:16:48.884Z,2.73
2017-11-19T06:19:16.552Z,3.07
2017-11-19T06:21:45.024Z,2.43
2017-11-19T06:24:13.492Z,2.77
2017-11-19T06:26:41.169Z,3.20
2017-11-19T06:29:09.638Z,2.70
2017-11-19T06:31:37.293Z,2.60
2017-11-19T06:34:05.007Z,2.60
2017-11-19T06:36:32.675Z,2.77
2017-11-19T06:39:00.386Z,3.60
2017-11-19T06:41:28.819Z,2.57
2017-11-19T06:43:56.521Z,3.43
2017-11-19T06:46:24.948Z,2.50
2017-11-19T06:48:52.659Z,2.23
2017-11-19T06:51:21.114Z,2.50
2017-11-19T06:53:48.838Z,2.20
2017-11-19T06:56:16.514Z,2.27
2017-11-19T06:58:44.208Z,2.13
2017-11-19T07:01:12.631Z,2.60
2017-11-19T07:03:40.333Z,4.00
2017-11-19T07:06:08.045Z,3.40
2017-11-19T07:08:35.758Z,2.03
2017-11-19T07:11:03.587Z,1.80
2017-11-19T07:13:31.322Z,2.00
2017-11-19T07:15:58.993Z,2.40
2017-11-19T07:18:26.720Z,4.43
2017-11-19T07:20:55.149Z,3.03
2017-11-19T07:23:22.860Z,2.30
2017-11-19T07:25:51.301Z,2.93
2017-11-19T07:28:19.185Z,3.23
2017-11-19T07:30:47.233Z,3.13
2017-11-19T07:33:15.021Z,2.77
2017-11-19T07:35:43.484Z,2.40
2017-11-19T07:38:11.199Z,2.63
2017-11-19T07:40:38.960Z,2.60
2017-11-19T07:43:06.652Z,3.23
2017-11-19T07:45:34.365Z,2.33
2017-11-19T07:48:02.021Z,2.47
2017-11-19T07:50:29.852Z,1.90
2017-11-19T07:52:57.580Z,2.13
2017-11-19T07:55:25.293Z,2.77
2017-11-19T07:57:53.740Z,2.73
2017-11-19T08:00:21.450Z,3.80
2017-11-19T08:02:49.145Z,3.07
2017-11-19T08:05:16.910Z,3.00
2017-11-19T08:07:44.604Z,3.30
2017-11-19T08:10:13.104Z,1.93
2017-11-19T08:12:40.790Z,2.00
2017-11-19T08:15:08.524Z,2.33
2017-11-19T08:17:36.189Z,2.17
2017-11-19T08:20:03.901Z,2.00
2017-11-19T08:22:31.580Z,2.67
2017-11-19T08:25:00.076Z,2.93
2017-11-19T08:27:28.852Z,2.73
2017-11-19T08:29:57.380Z,3.00
2017-11-19T08:32:25.057Z,2.40
2017-11-19T08:34:52.763Z,2.37
2017-11-19T08:37:21.181Z,2.70
2017-11-19T08:39:48.885Z,3.20
2017-11-19T08:42:17.316Z,2.80
2017-11-19T08:44:44.972Z,3.00
2017-11-19T08:47:12.682Z,2.80
2017-11-19T08:49:41.115Z,3.00
2017-11-19T08:52:08.813Z,2.60
2017-11-19T08:54:36.486Z,4.27
2017-11-19T08:57:04.956Z,4.60
2017-11-19T08:59:33.380Z,2.67
2017-11-19T09:02:01.095Z,3.57
2017-11-19T09:04:29.536Z,3.50
2017-11-19T09:06:57.261Z,4.87
2017-11-19T09:09:24.981Z,3.60
2017-11-19T09:11:52.713Z,3.17
2017-11-19T09:14:21.597Z,3.20
2017-11-19T09:16:51.219Z,3.17
2017-11-19T09:19:20.657Z,3.67
2017-11-19T09:21:51.294Z,3.23
2017-11-19T09:24:20.684Z,5.13
2017-11-19T09:26:51.881Z,6.50
2017-11-19T09:29:21.821Z,3.47
2017-11-19T09:31:52.119Z,4.90
2017-11-19T09:34:22.029Z,4.40
2017-11-19T09:36:52.183Z,3.40
2017-11-19T09:39:20.097Z,4.40
2017-11-19T09:41:47.826Z,4.60
2017-11-19T09:44:15.504Z,13.37
2017-11-19T09:46:43.279Z,7.30
2017-11-19T09:49:10.951Z,7.57
2017-11-19T09:51:38.663Z,5.60
2017-11-19T09:54:06.361Z,3.93
2017-11-19T09:56:34.027Z,2.70
2017-11-19T09:59:01.739Z,3.47
2017-11-19T10:01:30.221Z,3.50
2017-11-19T10:03:57.975Z,6.27
2017-11-19T10:06:25.683Z,3.93
2017-11-19T10:08:53.403Z,3.80
2017-11-19T10:11:21.065Z,2.57
2017-11-19T10:13:48.771Z,2.57
2017-11-19T10:16:16.474Z,2.70
2017-11-19T10:18:44.177Z,2.30
2017-11-19T10:21:11.859Z,2.73
2017-11-19T10:23:39.567Z,1.87
2017-11-19T10:26:07.236Z,2.17
2017-11-19T10:28:34.956Z,2.47
2017-11-19T10:31:02.627Z,2.40
2017-11-19T10:33:31.093Z,1.87
2017-11-19T10:35:58.780Z,2.23
2017-11-19T10:38:26.520Z,2.30
2017-11-19T10:40:54.970Z,3.03
2017-11-19T10:43:22.693Z,2.50
2017-11-19T10:45:50.364Z,2.67
2017-11-19T10:48:18.081Z,3.70
2017-11-19T10:50:46.509Z,2.50
2017-11-19T10:53:14.241Z,2.97
2017-11-19T10:55:41.902Z,2.53
2017-11-19T10:58:09.564Z,2.33
2017-11-19T11:00:37.289Z,2.00
2017-11-19T11:03:04.973Z,1.67
2017-11-19T11:05:32.708Z,2.43
2017-11-19T11:08:00.378Z,2.90
2017-11-19T11:10:28.858Z,2.13
2017-11-19T11:12:56.549Z,2.53
2017-11-19T11:15:24.267Z,3.97
2017-11-19T11:17:51.920Z,11.53
2017-11-19T11:20:19.637Z,2.90
2017-11-19T11:22:47.306Z,8.73
2017-11-19T11:25:15.065Z,5.27
2017-11-19T11:27:42.741Z,11.80
2017-11-19T11:30:10.453Z,6.63
2017-11-19T11:32:38.924Z,6.97
2017-11-19T11:35:07.400Z,5.33
2017-11-19T11:37:35.817Z,4.10
2017-11-19T11:40:03.576Z,4.80
2017-11-19T11:42:31.265Z,4.53
2017-11-19T11:44:58.977Z,6.90
2017-11-19T11:47:26.676Z,3.90
2017-11-19T11:49:54.411Z,5.00
2017-11-19T11:52:22.113Z,6.67
2017-11-19T11:54:49.813Z,4.13
2017-11-19T11:57:17.515Z,3.80
2017-11-19T11:59:45.252Z,3.10
2017-11-19T12:02:12.923Z,6.00
2017-11-19T12:04:40.598Z,5.60
2017-11-19T12:07:09.065Z,6.40
2017-11-19T12:09:36.777Z,4.33
2017-11-19T12:12:05.258Z,4.43
2017-11-19T12:14:33.693Z,4.53
2017-11-19T12:17:01.433Z,3.60
2017-11-19T12:19:29.093Z,4.90
2017-11-19T12:21:56.797Z,2.90
2017-11-19T12:24:24.481Z,3.00
2017-11-19T12:26:52.256Z,2.50
2017-11-19T12:29:19.993Z,2.50
2017-11-19T12:31:48.528Z,1.80
2017-11-19T12:34:16.209Z,2.40
2017-11-19T12:36:43.936Z,2.10
2017-11-19T12:39:11.617Z,2.40
2017-11-19T12:41:39.323Z,1.93
2017-11-19T12:44:08.914Z,2.40
2017-11-19T12:46:38.656Z,3.90
2017-11-19T12:49:09.079Z,4.67
2017-11-19T12:51:39.955Z,3.50
2017-11-19T12:54:10.743Z,3.23
2017-11-19T12:56:41.504Z,2.30
2017-11-19T12:59:12.347Z,2.33
2017-11-19T13:01:42.317Z,3.93
2017-11-19T13:04:12.664Z,3.10
2017-11-19T13:06:42.966Z,2.47
2017-11-19T13:09:14.329Z,2.60
2017-11-19T13:11:46.956Z,1.97
2017-11-19T13:14:19.719Z,2.47
2017-11-19T13:16:50.684Z,2.77
2017-11-19T13:19:21.286Z,2.90
2017-11-19T13:21:53.167Z,3.00
2017-11-19T13:24:24.159Z,3.90
2017-11-19T13:26:54.000Z,2.50
2017-11-19T13:29:26.429Z,3.57
2017-11-19T13:31:57.634Z,2.57
2017-11-19T13:34:29.736Z,2.70
2017-11-19T13:37:01.227Z,5.00
2017-11-19T13:39:30.930Z,10.93
2017-11-19T13:41:58.796Z,9.17
2017-11-19T13:44:26.517Z,6.23
2017-11-19T13:46:54.230Z,12.27
2017-11-19T13:49:22.700Z,10.30
2017-11-19T13:51:51.129Z,6.70
2017-11-19T13:54:18.836Z,6.07
2017-11-19T13:56:47.267Z,8.43
2017-11-19T13:59:14.969Z,5.10
2017-11-19T14:01:42.635Z,3.80
2017-11-19T14:04:11.105Z,2.03
2017-11-19T14:06:38.760Z,4.63
2017-11-19T14:09:06.461Z,2.53
2017-11-19T14:11:34.124Z,2.70
2017-11-19T14:14:01.837Z,2.00
2017-11-19T14:16:29.501Z,2.03
2017-11-19T14:18:57.199Z,2.93
2017-11-19T14:21:24.864Z,3.17
2017-11-19T14:23:52.572Z,2.73
2017-11-19T14:26:20.233Z,3.03
2017-11-19T14:28:47.930Z,3.40
2017-11-19T14:31:15.589Z,2.37
2017-11-19T14:33:43.291Z,3.40
2017-11-19T14:36:10.956Z,2.67
2017-11-19T14:38:38.681Z,3.33
2017-11-19T14:41:06.360Z,2.97
2017-11-19T14:43:34.016Z,2.80
2017-11-19T14:46:01.735Z,3.87
2017-11-19T14:48:29.436Z,3.17
2017-11-19T14:50:57.128Z,3.37
2017-11-19T14:53:24.788Z,3.60
2017-11-19T14:55:52.486Z,3.33
2017-11-19T14:58:20.152Z,2.30
2017-11-19T15:00:47.892Z,2.27
2017-11-19T15:03:16.317Z,3.23
2017-11-19T15:05:44.026Z,3.70
2017-11-19T15:08:12.444Z,3.70
2017-11-19T15:10:40.150Z,3.80
2017-11-19T15:13:07.821Z,6.70
2017-11-19T15:15:36.288Z,2.97
2017-11-19T15:18:03.972Z,6.80
2017-11-19T15:20:32.437Z,3.03
2017-11-19T15:23:00.906Z,2.97
2017-11-19T15:25:28.613Z,5.63
2017-11-19T15:27:56.309Z,5.00
2017-11-19T15:30:24.031Z,3.43
2017-11-19T15:32:51.704Z,3.50
2017-11-19T15:35:19.416Z,4.70
2017-11-19T15:37:47.846Z,3.80
2017-11-19T15:40:15.577Z,3.77
2017-11-19T15:42:43.236Z,3.70
2017-11-19T15:45:10.973Z,4.70
2017-11-19T15:47:39.404Z,3.13
2017-11-19T15:50:07.065Z,4.03
2017-11-19T15:52:34.778Z,4.47
2017-11-19T15:55:03.208Z,5.40
2017-11-19T15:57:30.921Z,5.27
2017-11-19T15:59:59.348Z,4.33
2017-11-19T16:02:27.053Z,4.30
2017-11-19T16:04:55.489Z,3.57
2017-11-19T16:07:23.959Z,3.93
2017-11-19T16:09:51.733Z,3.93
2017-11-19T16:12:20.361Z,6.83
2017-11-19T16:14:48.811Z,5.47
2017-11-19T16:17:16.531Z,6.17
2017-11-19T16:19:44.181Z,5.13
2017-11-19T16:22:11.897Z,5.30
2017-11-19T16:24:39.583Z,3.83
2017-11-19T16:27:07.287Z,4.60
2017-11-19T16:29:34.961Z,5.50
2017-11-19T16:32:02.686Z,5.87
2017-11-19T16:34:30.410Z,3.40
2017-11-19T16:36:58.896Z,3.47
2017-11-19T16:39:27.329Z,4.83
2017-11-19T16:41:55.046Z,2.83
2017-11-19T16:44:22.716Z,2.53
2017-11-19T16:46:50.419Z,3.20
2017-11-19T16:49:18.089Z,3.40
2017-11-19T16:51:45.789Z,4.97
2017-11-19T16:54:13.469Z,3.10
2017-11-19T16:56:41.163Z,4.20
2017-11-19T16:59:08.885Z,4.00
2017-11-19T17:01:36.556Z,4.77
2017-11-19T17:04:04.271Z,3.47
2017-11-19T17:06:32.759Z,5.07
2017-11-19T17:09:00.569Z,5.85
2017-11-19T17:11:28.224Z,5.97
2017-11-19T17:13:55.925Z,9.33
2017-11-19T17:16:24.358Z,4.47
2017-11-19T17:18:52.864Z,5.97
2017-11-19T17:21:20.542Z,4.83
2017-11-19T17:23:49.005Z,3.97
2017-11-19T17:26:16.674Z,3.23
2017-11-19T17:28:45.194Z,3.53
2017-11-19T17:31:12.853Z,4.50
2017-11-19T17:33:40.572Z,4.80
2017-11-19T17:36:14.877Z,3.87
2017-11-19T17:38:42.586Z,7.10
2017-11-19T17:41:10.341Z,3.27
2017-11-19T17:43:38.052Z,3.43
2017-11-19T17:46:05.718Z,5.33
2017-11-19T17:48:33.472Z,10.23
2017-11-19T17:51:01.128Z,8.93
2017-11-19T17:53:28.842Z,3.00
2017-11-19T17:55:56.509Z,3.17
2017-11-19T17:58:24.212Z,4.00
2017-11-19T18:00:51.876Z,5.30
2017-11-19T18:03:19.542Z,6.10
2017-11-19T18:05:47.249Z,4.53
2017-11-19T18:08:14.910Z,5.27
2017-11-19T18:10:42.637Z,6.43
2017-11-19T18:13:11.058Z,5.03
2017-11-19T18:15:38.758Z,5.00
2017-11-19T18:18:06.437Z,6.40
2017-11-19T18:20:34.172Z,5.60
2017-11-19T18:23:12.394Z,4.93
2017-11-19T18:25:40.964Z,5.10
2017-11-19T18:30:37.842Z,3.73
2017-11-19T18:33:06.260Z,4.10
2017-11-19T18:35:33.964Z,3.80
2017-11-19T18:38:02.393Z,4.10
2017-11-19T18:40:30.100Z,3.73
2017-11-19T18:42:57.759Z,4.17
2017-11-19T18:45:25.466Z,3.70
2017-11-19T18:47:53.116Z,3.80
2017-11-19T18:50:20.832Z,3.90
2017-11-19T18:52:48.495Z,5.30
2017-11-19T18:55:16.974Z,7.07
2017-11-19T18:57:44.645Z,4.77
2017-11-19T19:00:13.117Z,9.53
2017-11-19T19:02:41.546Z,10.63
2017-11-19T19:05:09.261Z,4.40
2017-11-19T19:07:37.679Z,4.07
2017-11-19T19:10:05.398Z,3.80
2017-11-19T19:12:33.870Z,4.20
2017-11-19T19:15:02.296Z,5.10
2017-11-19T19:17:30.005Z,4.90
2017-11-19T19:19:57.668Z,4.80
2017-11-19T19:22:26.146Z,4.10
2017-11-19T19:24:54.575Z,4.87
2017-11-19T19:27:22.283Z,5.40
2017-11-19T19:29:50.705Z,5.17
2017-11-19T19:32:18.634Z,8.50
2017-11-19T19:34:46.371Z,7.07
2017-11-19T19:37:14.068Z,5.83
2017-11-19T19:39:41.720Z,4.70
2017-11-19T19:42:10.197Z,4.43
2017-11-19T19:44:38.620Z,8.40
2017-11-19T19:47:06.337Z,16.73
2017-11-19T19:49:34.761Z,8.70
2017-11-19T19:52:02.460Z,6.27
2017-11-19T19:54:30.894Z,7.17
2017-11-19T19:56:58.628Z,4.30
2017-11-19T19:59:26.320Z,4.13
2017-11-19T20:01:54.012Z,3.60
2017-11-19T20:04:21.668Z,4.27
2017-11-19T20:06:49.370Z,3.80
2017-11-19T20:09:17.048Z,4.50
2017-11-19T20:11:44.759Z,4.07
2017-11-19T20:14:13.212Z,4.43
2017-11-19T20:16:40.907Z,4.90
2017-11-19T20:19:09.403Z,4.53
2017-11-19T20:21:37.059Z,4.17
2017-11-19T20:24:04.862Z,3.50
2017-11-19T20:26:32.623Z,3.87
2017-11-19T20:29:00.317Z,3.10
2017-11-19T20:31:28.744Z,3.27
2017-11-19T20:33:56.478Z,3.73
2017-11-19T20:36:25.237Z,4.00
2017-11-19T20:38:54.793Z,3.27
2017-11-19T20:41:23.518Z,4.27
2017-11-19T20:43:53.645Z,4.80
2017-11-19T20:46:24.227Z,5.10
2017-11-19T20:48:53.839Z,4.80
2017-11-19T20:51:23.882Z,5.13
2017-11-19T20:53:55.053Z,4.83
2017-11-19T20:56:24.610Z,4.53
2017-11-19T20:58:55.238Z,5.90
2017-11-19T21:01:25.082Z,4.53
2017-11-19T21:03:55.703Z,4.73
2017-11-19T21:06:26.197Z,3.63
2017-11-19T21:08:54.985Z,4.47
2017-11-19T21:11:22.669Z,3.47
2017-11-19T21:13:50.381Z,4.60
2017-11-19T21:16:18.052Z,4.27
2017-11-19T21:18:45.754Z,3.33
2017-11-19T21:21:13.416Z,3.87
2017-11-19T21:23:41.892Z,3.07
2017-11-19T21:26:10.324Z,3.33
2017-11-19T21:28:38.017Z,3.43
2017-11-19T21:31:05.672Z,3.10
2017-11-19T21:33:33.395Z,2.87
2017-11-19T21:36:01.078Z,2.97
2017-11-19T21:38:28.727Z,3.13
2017-11-19T21:40:56.424Z,3.43
2017-11-19T21:43:24.080Z,3.40
2017-11-19T21:45:51.778Z,3.50
2017-11-19T21:48:19.445Z,2.67
2017-11-19T21:50:47.148Z,5.20
2017-11-19T21:53:14.804Z,6.50
2017-11-19T21:55:42.504Z,6.87
2017-11-19T21:58:10.177Z,5.37
2017-11-19T22:00:37.891Z,4.17
2017-11-19T22:03:05.548Z,3.70
2017-11-19T22:05:33.243Z,3.97
2017-11-19T22:08:01.666Z,3.70
2017-11-19T22:10:29.364Z,2.77
2017-11-19T22:12:57.018Z,2.90
2017-11-19T22:15:24.722Z,3.63
2017-11-19T22:17:52.390Z,3.47
2017-11-19T22:20:20.096Z,3.60
2017-11-19T22:22:47.748Z,3.30
2017-11-19T22:25:15.455Z,2.57
2017-11-19T22:27:43.113Z,2.20
2017-11-19T22:30:10.812Z,3.70
2017-11-19T22:32:38.470Z,4.40
2017-11-19T22:35:06.165Z,4.43
2017-11-19T22:37:34.580Z,3.30
2017-11-19T22:40:02.277Z,3.77
2017-11-19T22:42:29.947Z,3.90
2017-11-19T22:44:57.648Z,3.83
2017-11-19T22:47:25.297Z,3.20
2017-11-19T22:49:53.777Z,3.50
2017-11-19T22:52:21.437Z,2.90
2017-11-19T22:54:49.128Z,3.10
2017-11-19T22:57:16.784Z,3.43
2017-11-19T22:59:44.487Z,3.97
2017-11-19T23:02:12.135Z,3.07
2017-11-19T23:04:39.849Z,4.13
2017-11-19T23:07:07.508Z,3.80
2017-11-19T23:09:35.198Z,3.80
2017-11-19T23:12:02.892Z,4.03
2017-11-19T23:14:31.353Z,4.40
2017-11-19T23:16:59.009Z,3.93
2017-11-19T23:19:26.709Z,3.10
2017-11-19T23:21:55.237Z,3.70
2017-11-19T23:24:22.932Z,3.90
2017-11-19T23:26:51.348Z,4.10
2017-11-19T23:29:19.047Z,3.20
2017-11-19T23:31:46.707Z,3.60
2017-11-19T23:34:14.437Z,3.23
2017-11-19T23:36:42.098Z,3.67
2017-11-19T23:39:09.792Z,3.33
2017-11-19T23:41:37.488Z,3.50
2017-11-19T23:44:05.136Z,3.43
2017-11-19T23:46:33.605Z,3.40
2017-11-19T23:49:02.027Z,2.90
2017-11-19T23:51:29.721Z,2.70
2017-11-19T23:53:57.382Z,3.33
2017-11-19T23:56:25.076Z,3.27
2017-11-19T23:58:53.498Z,3.30
